LFJL

Metz-Nancy-Lorraine Airport

Airport
ICAO code
LFJL
IATA Code
ETZ
Summary
ICAO Region
EUR
ICAO Territory
Location

, Lorraine

Serving
Metz
Elevation
870 ft
Coordinates
48° 58' 56" N , 6° 15' 5" E
Metar
Observation
LFJL 030230Z AUTO 06010KT 9999 OVC008 02/01 Q1017 TEMPO OVC004
Station
Metz-Nancy-Lorraine
Date/Time
2022-12-03 02:30:00
Wind direction
60°
Wind speed
10 kts
Lowest cloud amount
overcast
Temperature
2°C
Dew point
1°C
Humidity
93%
QNH
1017 hPa
Weather condition
n/a

Runways

Designator Length Width Surface Rops
4/22 2500 45 ASP Yes/Yes

Airport map

Aerial View

SKYbrary Partners:

Safety knowledge contributed by: